Terminal Aerodrome Forecast
Issued by NWS Charleston, WV

Current Version | Previous Version | Graphics & Text | Print | Product List | Glossary On
Versions: 1 2 3 4 5 6 7 8 9 10 11 12 13 14 15 16 17 18 19 20 21 22 23 24 25
000
FTUS41 KRLX 302300 RRA
TAFCRW
TAF
KCRW 302347Z 3100/3124 31008G15KT P6SM SCT035
     FM310400 32004KT P6SM FEW025
     FM310500 31004KT P6SM SCT250
     FM311800 25004KT P6SM SCT250=

USA.gov is the U.S. government's official web portal to all federal, state and local government web resources and services.